Time;durP1;ratioP1;P1;durP2;ratioP2;P2;SDS_P1;SDS_P2;PMS_P1;PMS_P2;Temp;Humidity;BMP_temperature;BMP_pressure;BME280_temperature;BME280_humidity;BME280_pressure;Samples;Min_cycle;Max_cycle;Signal;HPM_P1;HPM_P2
2023/06/20 00:01:40;;;;;;;5.53;3.58;;;;;;;;;;5070747;28;20041;-76
2023/06/20 00:04:05;;;;;;;5.30;3.70;;;;;;;;;;5073032;28;20040;-76
2023/06/20 00:06:30;;;;;;;4.65;3.92;;;;;;;;;;5068677;28;20397;-76
2023/06/20 00:08:55;;;;;;;4.97;3.75;;;;;;;;;;5084676;28;20028;-76
2023/06/20 00:11:21;;;;;;;6.28;4.25;;;;;;;;;;5083520;28;20120;-76
2023/06/20 00:13:46;;;;;;;6.10;3.92;;;;;;;;;;5085337;28;20064;-76
2023/06/20 00:16:11;;;;;;;4.28;3.88;;;;;;;;;;5080621;28;20047;-76
2023/06/20 00:18:37;;;;;;;4.57;4.10;;;;;;;;;;5079736;28;20112;-76
2023/06/20 00:21:03;;;;;;;4.20;3.80;;;;;;;;;;5086485;28;20016;-76
2023/06/20 00:23:29;;;;;;;5.20;4.07;;;;;;;;;;5085516;28;20027;-76
2023/06/20 00:25:55;;;;;;;5.15;4.30;;;;;;;;;;5092258;28;20028;-76
2023/06/20 00:28:21;;;;;;;5.15;4.07;;;;;;;;;;5085927;28;20027;-76
2023/06/20 00:30:46;;;;;;;5.55;4.47;;;;;;;;;;5060071;28;20523;-76
2023/06/20 00:33:12;;;;;;;4.53;4.13;;;;;;;;;;5057558;28;20537;-76
2023/06/20 00:35:38;;;;;;;6.20;4.80;;;;;;;;;;5071435;28;20039;-76
2023/06/20 00:38:04;;;;;;;5.07;4.38;;;;;;;;;;5084530;28;20032;-76
2023/06/20 00:40:29;;;;;;;5.25;4.75;;;;;;;;;;5091376;28;20032;-76
2023/06/20 00:42:54;;;;;;;6.57;4.50;;;;;;;;;;5093058;28;20035;-76
2023/06/20 00:45:32;;;;;;;5.85;4.65;;;;;;;;;;5089271;28;20038;-76
2023/06/20 00:48:00;;;;;;;5.35;4.22;;;;;;;;;;5073800;28;20012;-76
2023/06/20 00:50:27;;;;;;;5.80;4.53;;;;;;;;;;5088546;28;20036;-76
2023/06/20 00:52:58;;;;;;;9.43;5.00;;;;;;;;;;5089515;28;20082;-76
2023/06/20 00:55:24;;;;;;;6.15;4.55;;;;;;;;;;5088631;28;20032;-76
2023/06/20 00:57:49;;;;;;;4.30;3.90;;;;;;;;;;5084274;28;20046;-76
2023/06/20 01:00:14;;;;;;;6.03;4.93;;;;;;;;;;5082752;28;20449;-76
2023/06/20 01:02:46;;;;;;;7.93;5.15;;;;;;;;;;5091439;28;20037;-76
2023/06/20 01:05:15;;;;;;;10.85;5.80;;;;;;;;;;5072251;28;20028;-77
2023/06/20 01:07:57;;;;;;;7.57;6.38;;;;;;;;;;5090430;28;20032;-76
2023/06/20 01:10:42;;;;;;;11.10;6.10;;;;;;;;;;5071983;28;20592;-76
2023/06/20 01:13:24;;;;;;;14.75;5.50;;;;;;;;;;5070720;28;20081;-76
2023/06/20 01:16:09;;;;;;;7.38;5.40;;;;;;;;;;5092613;28;20560;-76
2023/06/20 01:19:28;;;;;;;10.05;5.43;;;;;;;;;;5091009;28;20028;-76
2023/06/20 01:22:02;;;;;;;6.78;5.47;;;;;;;;;;5054157;28;20443;-76
2023/06/20 01:24:53;;;;;;;6.57;5.05;;;;;;;;;;5070712;28;20127;-76
2023/06/20 01:27:29;;;;;;;11.35;5.90;;;;;;;;;;5074970;28;20062;-77
2023/06/20 01:30:12;;;;;;;6.93;5.60;;;;;;;;;;5085773;28;20044;-76
2023/06/20 01:32:44;;;;;;;5.65;4.60;;;;;;;;;;5085480;28;20040;-77
2023/06/20 01:35:14;;;;;;;9.27;5.38;;;;;;;;;;5075510;28;20055;-76
2023/06/20 01:37:42;;;;;;;7.00;4.80;;;;;;;;;;5082728;28;20040;-76
2023/06/20 01:40:10;;;;;;;6.57;5.25;;;;;;;;;;5070989;28;20123;-76
2023/06/20 01:42:37;;;;;;;5.75;4.70;;;;;;;;;;5088417;28;20548;-76
2023/06/20 01:45:05;;;;;;;5.80;4.07;;;;;;;;;;5079591;28;20390;-76
2023/06/20 01:47:34;;;;;;;7.43;4.63;;;;;;;;;;5084731;28;20032;-76
2023/06/20 01:50:01;;;;;;;6.18;4.68;;;;;;;;;;5083579;28;20035;-76
2023/06/20 01:52:28;;;;;;;5.95;3.88;;;;;;;;;;5071628;28;20111;-76
2023/06/20 01:54:54;;;;;;;4.93;3.92;;;;;;;;;;5088377;28;20051;-76
2023/06/20 01:57:21;;;;;;;4.28;3.88;;;;;;;;;;5079476;28;20013;-76
2023/06/20 01:59:47;;;;;;;3.70;3.40;;;;;;;;;;5063034;28;20032;-76
2023/06/20 02:02:14;;;;;;;4.13;3.70;;;;;;;;;;5068708;28;20032;-76
2023/06/20 02:04:41;;;;;;;4.18;3.63;;;;;;;;;;5063443;28;20143;-76
2023/06/20 02:07:08;;;;;;;8.02;3.80;;;;;;;;;;5090933;28;20056;-76
2023/06/20 02:09:35;;;;;;;4.20;3.78;;;;;;;;;;5073453;28;20097;-76
2023/06/20 02:12:01;;;;;;;5.50;3.83;;;;;;;;;;5068124;28;20386;-76
2023/06/20 02:14:27;;;;;;;4.00;3.63;;;;;;;;;;5065918;28;20119;-76
2023/06/20 02:16:54;;;;;;;4.43;3.72;;;;;;;;;;5068022;28;20494;-76
2023/06/20 02:19:20;;;;;;;8.48;3.75;;;;;;;;;;5071306;28;20030;-76
2023/06/20 02:21:46;;;;;;;6.95;3.67;;;;;;;;;;5080599;28;20108;-76
2023/06/20 02:24:17;;;;;;;5.93;3.80;;;;;;;;;;5075759;28;20024;-75
2023/06/20 02:26:44;;;;;;;7.55;4.10;;;;;;;;;;5075786;28;20060;-75
2023/06/20 02:29:10;;;;;;;4.30;3.90;;;;;;;;;;5072143;28;20029;-76
2023/06/20 02:31:40;;;;;;;4.85;3.80;;;;;;;;;;5073404;28;20475;-76
2023/06/20 02:34:09;;;;;;;5.50;4.13;;;;;;;;;;5072831;28;20514;-75
2023/06/20 02:36:36;;;;;;;4.78;3.88;;;;;;;;;;5070332;28;20059;-75
2023/06/20 02:39:04;;;;;;;4.32;3.92;;;;;;;;;;5074395;28;20020;-75
2023/06/20 02:41:30;;;;;;;4.70;4.22;;;;;;;;;;5080949;28;20154;-75
2023/06/20 02:43:56;;;;;;;4.07;3.67;;;;;;;;;;5087219;28;21283;-75
2023/06/20 02:46:48;;;;;;;5.30;3.85;;;;;;;;;;5067153;28;20031;-75
2023/06/20 02:49:39;;;;;;;5.10;3.80;;;;;;;;;;5069228;28;20029;-75
2023/06/20 02:52:27;;;;;;;4.70;4.20;;;;;;;;;;5057442;28;20124;-75
2023/06/20 02:55:21;;;;;;;4.25;3.85;;;;;;;;;;5064687;28;20040;-75
2023/06/20 02:57:52;;;;;;;8.32;4.45;;;;;;;;;;5077753;28;20041;-75
2023/06/20 03:00:19;;;;;;;4.75;3.53;;;;;;;;;;5062963;28;20369;-75
2023/06/20 03:02:51;;;;;;;4.78;4.20;;;;;;;;;;5063169;28;20025;-75
2023/06/20 03:05:18;;;;;;;4.82;4.30;;;;;;;;;;5061001;28;20098;-75
2023/06/20 03:07:44;;;;;;;5.10;4.60;;;;;;;;;;5058261;28;20039;-75
2023/06/20 03:10:10;;;;;;;5.72;4.72;;;;;;;;;;5058085;28;20029;-75
2023/06/20 03:12:37;;;;;;;8.75;4.70;;;;;;;;;;5058327;28;20029;-75
2023/06/20 03:15:03;;;;;;;4.85;4.20;;;;;;;;;;5069830;28;20029;-75
2023/06/20 03:17:28;;;;;;;5.53;4.55;;;;;;;;;;5065493;28;20013;-75
2023/06/20 03:19:53;;;;;;;4.68;4.28;;;;;;;;;;5062763;28;20041;-75
2023/06/20 03:22:19;;;;;;;5.70;4.30;;;;;;;;;;5085168;28;20093;-75
2023/06/20 03:24:47;;;;;;;6.90;4.60;;;;;;;;;;5082894;28;20028;-75
2023/06/20 03:27:12;;;;;;;5.78;5.18;;;;;;;;;;5089417;28;20021;-75
2023/06/20 03:29:38;;;;;;;5.22;4.22;;;;;;;;;;5074247;28;20051;-75
2023/06/20 03:32:03;;;;;;;4.15;3.75;;;;;;;;;;5078538;28;20119;-75
2023/06/20 03:34:29;;;;;;;4.63;4.22;;;;;;;;;;5074150;28;20032;-75
2023/06/20 03:36:55;;;;;;;5.00;4.43;;;;;;;;;;5093794;28;20036;-75
2023/06/20 03:39:20;;;;;;;5.97;4.32;;;;;;;;;;5086345;28;20031;-76
2023/06/20 03:41:45;;;;;;;4.72;4.03;;;;;;;;;;5084855;28;20501;-76
2023/06/20 03:44:11;;;;;;;4.30;3.90;;;;;;;;;;5086649;28;20143;-76
2023/06/20 03:46:36;;;;;;;8.32;4.78;;;;;;;;;;5084421;28;20024;-76
2023/06/20 03:49:01;;;;;;;5.03;4.47;;;;;;;;;;5074457;28;20516;-76
2023/06/20 03:51:26;;;;;;;5.85;4.00;;;;;;;;;;5092917;28;20032;-76
2023/06/20 03:53:51;;;;;;;5.85;4.53;;;;;;;;;;5085838;28;20039;-76
2023/06/20 03:56:17;;;;;;;6.22;4.13;;;;;;;;;;5080375;28;20021;-76
2023/06/20 03:58:42;;;;;;;5.32;4.07;;;;;;;;;;5073361;28;20024;-76
2023/06/20 04:01:07;;;;;;;8.00;4.85;;;;;;;;;;5084194;28;20028;-76
2023/06/20 04:03:33;;;;;;;6.75;4.40;;;;;;;;;;5086441;28;20035;-75
2023/06/20 04:06:01;;;;;;;8.20;4.13;;;;;;;;;;5083660;28;20073;-76
2023/06/20 04:08:28;;;;;;;5.20;4.22;;;;;;;;;;5090699;28;20024;-76
2023/06/20 04:10:53;;;;;;;4.97;4.28;;;;;;;;;;5084886;28;20398;-76
2023/06/20 04:13:18;;;;;;;6.75;4.55;;;;;;;;;;5081319;28;20028;-76
2023/06/20 04:15:44;;;;;;;7.03;3.95;;;;;;;;;;5093125;28;20027;-76
2023/06/20 04:18:09;;;;;;;6.00;4.28;;;;;;;;;;5077316;28;20025;-76
2023/06/20 04:20:34;;;;;;;6.43;3.97;;;;;;;;;;5080338;28;20402;-76
2023/06/20 04:22:59;;;;;;;4.43;3.60;;;;;;;;;;5075270;28;20060;-76
2023/06/20 04:25:25;;;;;;;6.03;3.88;;;;;;;;;;5087544;28;20028;-76
2023/06/20 04:27:53;;;;;;;4.72;4.00;;;;;;;;;;5085049;28;20621;-76
2023/06/20 04:30:19;;;;;;;4.75;3.75;;;;;;;;;;5072681;28;20024;-76
2023/06/20 04:32:44;;;;;;;11.50;3.70;;;;;;;;;;5081708;28;20074;-76
2023/06/20 04:35:10;;;;;;;5.78;3.80;;;;;;;;;;5078693;28;20075;-76
2023/06/20 04:37:36;;;;;;;3.90;3.50;;;;;;;;;;5078440;28;20042;-76
2023/06/20 04:40:01;;;;;;;4.43;3.40;;;;;;;;;;5075043;28;20029;-76
2023/06/20 04:42:26;;;;;;;4.43;3.35;;;;;;;;;;5071913;28;20047;-76
2023/06/20 04:44:52;;;;;;;10.70;3.47;;;;;;;;;;5079255;28;20061;-76
2023/06/20 04:47:17;;;;;;;3.83;3.05;;;;;;;;;;5071932;28;20039;-76
2023/06/20 04:49:43;;;;;;;4.75;3.30;;;;;;;;;;5070470;28;20029;-76
2023/06/20 04:52:08;;;;;;;4.03;3.28;;;;;;;;;;5068775;28;20549;-76
2023/06/20 04:54:33;;;;;;;3.53;2.97;;;;;;;;;;5068738;28;20285;-77
2023/06/20 04:56:59;;;;;;;3.45;3.13;;;;;;;;;;5068154;28;20035;-76
2023/06/20 04:59:24;;;;;;;3.40;3.10;;;;;;;;;;5064910;28;20032;-76
2023/06/20 05:01:51;;;;;;;3.40;3.10;;;;;;;;;;5063652;28;20119;-76
2023/06/20 05:04:17;;;;;;;10.00;3.28;;;;;;;;;;5074901;28;20040;-76
2023/06/20 05:06:43;;;;;;;8.35;3.75;;;;;;;;;;5069053;28;20368;-76
2023/06/20 05:09:09;;;;;;;3.70;3.40;;;;;;;;;;5065566;28;20063;-76
2023/06/20 05:11:34;;;;;;;5.10;3.47;;;;;;;;;;5066864;28;20502;-76
2023/06/20 05:13:59;;;;;;;3.50;3.20;;;;;;;;;;5076160;28;20036;-75
2023/06/20 05:16:24;;;;;;;6.60;3.30;;;;;;;;;;5065345;28;20032;-75
2023/06/20 05:18:50;;;;;;;5.55;3.50;;;;;;;;;;5067453;28;20037;-75
2023/06/20 05:21:15;;;;;;;3.15;2.83;;;;;;;;;;5068199;28;20019;-76
2023/06/20 05:23:40;;;;;;;10.10;3.38;;;;;;;;;;5066160;28;20021;-75
2023/06/20 05:26:06;;;;;;;4.45;3.10;;;;;;;;;;5083388;28;20486;-76
2023/06/20 05:28:31;;;;;;;4.18;2.97;;;;;;;;;;5059877;28;20119;-76
2023/06/20 05:30:56;;;;;;;4.15;3.03;;;;;;;;;;5061029;28;20116;-76
2023/06/20 05:33:21;;;;;;;7.35;3.53;;;;;;;;;;5066591;28;20044;-76
2023/06/20 05:35:47;;;;;;;3.75;3.45;;;;;;;;;;5064752;28;20025;-76
2023/06/20 05:38:13;;;;;;;5.95;3.65;;;;;;;;;;5072582;28;20386;-75
2023/06/20 05:40:38;;;;;;;5.00;4.10;;;;;;;;;;5057184;28;20045;-76
2023/06/20 05:43:03;;;;;;;4.82;3.97;;;;;;;;;;5069040;28;20041;-76
2023/06/20 05:45:29;;;;;;;21.38;5.20;;;;;;;;;;5072828;28;20174;-75
2023/06/20 05:47:54;;;;;;;4.57;4.18;;;;;;;;;;5072540;28;20040;-76
2023/06/20 05:50:19;;;;;;;7.15;3.90;;;;;;;;;;5068163;28;20024;-76
2023/06/20 05:52:45;;;;;;;6.38;3.90;;;;;;;;;;5059467;28;20041;-76
2023/06/20 05:55:10;;;;;;;4.57;3.85;;;;;;;;;;5067012;28;20078;-75
2023/06/20 05:57:35;;;;;;;4.22;3.83;;;;;;;;;;5082716;28;20115;-75
2023/06/20 06:00:05;;;;;;;8.18;3.47;;;;;;;;;;5073793;28;20044;-75
2023/06/20 06:02:31;;;;;;;3.97;3.53;;;;;;;;;;5081021;28;20044;-76
2023/06/20 06:04:58;;;;;;;4.68;3.45;;;;;;;;;;5083501;28;20028;-76
2023/06/20 06:07:23;;;;;;;3.88;3.20;;;;;;;;;;5091394;28;20036;-76
2023/06/20 06:09:49;;;;;;;3.72;3.17;;;;;;;;;;5091095;28;20038;-76
2023/06/20 06:12:14;;;;;;;5.85;3.20;;;;;;;;;;5065732;28;20047;-76
2023/06/20 06:14:40;;;;;;;3.00;2.70;;;;;;;;;;5070647;28;20489;-76
2023/06/20 06:17:05;;;;;;;3.33;3.03;;;;;;;;;;5071606;28;20041;-76
2023/06/20 06:19:30;;;;;;;4.25;2.80;;;;;;;;;;5071679;28;20067;-76
2023/06/20 06:21:55;;;;;;;3.58;2.80;;;;;;;;;;5071339;28;20033;-76
2023/06/20 06:24:21;;;;;;;2.83;2.63;;;;;;;;;;5079248;28;20363;-76
2023/06/20 06:26:48;;;;;;;2.80;2.55;;;;;;;;;;5083113;28;20051;-76
2023/06/20 06:29:15;;;;;;;5.30;2.90;;;;;;;;;;5067089;28;20031;-76
2023/06/20 06:31:40;;;;;;;2.83;2.63;;;;;;;;;;5074529;28;20028;-76
2023/06/20 06:34:06;;;;;;;14.02;3.28;;;;;;;;;;5084438;28;20047;-76
2023/06/20 06:36:32;;;;;;;3.25;2.95;;;;;;;;;;5061892;28;20118;-76
2023/06/20 06:38:59;;;;;;;7.82;2.78;;;;;;;;;;5074258;28;20434;-76
2023/06/20 06:41:25;;;;;;;3.22;2.85;;;;;;;;;;5069673;28;20060;-76
2023/06/20 06:43:51;;;;;;;3.28;2.58;;;;;;;;;;5070641;28;20508;-76
2023/06/20 06:46:16;;;;;;;4.22;2.88;;;;;;;;;;5061029;28;20064;-76
2023/06/20 06:48:41;;;;;;;2.78;2.47;;;;;;;;;;5074061;28;20040;-76
2023/06/20 06:51:07;;;;;;;4.88;2.90;;;;;;;;;;5072964;28;20077;-76
2023/06/20 06:53:32;;;;;;;4.03;2.90;;;;;;;;;;5064372;28;20106;-76
2023/06/20 06:55:58;;;;;;;5.40;2.97;;;;;;;;;;5062691;28;20048;-76
2023/06/20 06:58:23;;;;;;;5.32;2.78;;;;;;;;;;5062855;28;20046;-76
2023/06/20 07:00:48;;;;;;;5.47;3.05;;;;;;;;;;5063409;28;20377;-76
2023/06/20 07:03:15;;;;;;;3.42;2.88;;;;;;;;;;5058593;28;20103;-76
2023/06/20 07:05:40;;;;;;;3.30;3.00;;;;;;;;;;5077268;28;20047;-76
2023/06/20 07:08:05;;;;;;;3.38;3.00;;;;;;;;;;5070638;28;20462;-76
2023/06/20 07:10:31;;;;;;;3.45;2.72;;;;;;;;;;5070094;28;20033;-76
2023/06/20 07:12:56;;;;;;;3.20;2.60;;;;;;;;;;5062893;28;20036;-76
2023/06/20 07:15:21;;;;;;;5.15;2.40;;;;;;;;;;5062002;28;20037;-76
2023/06/20 07:17:46;;;;;;;6.88;3.05;;;;;;;;;;5058195;28;20027;-76
2023/06/20 07:20:12;;;;;;;4.38;2.58;;;;;;;;;;5060178;28;20521;-76
2023/06/20 07:22:37;;;;;;;4.90;2.72;;;;;;;;;;5069324;28;20059;-76
2023/06/20 07:25:03;;;;;;;2.80;2.47;;;;;;;;;;5078221;28;20032;-76
2023/06/20 07:27:28;;;;;;;5.40;2.75;;;;;;;;;;5061551;28;20043;-76
2023/06/20 07:29:54;;;;;;;2.70;2.50;;;;;;;;;;5061672;28;20470;-76
2023/06/20 07:32:19;;;;;;;3.50;2.88;;;;;;;;;;5062435;28;20498;-76
2023/06/20 07:34:44;;;;;;;4.40;2.65;;;;;;;;;;5064989;28;20040;-76
2023/06/20 07:37:10;;;;;;;3.00;2.63;;;;;;;;;;5065098;28;20067;-76
2023/06/20 07:39:40;;;;;;;3.10;2.58;;;;;;;;;;5054793;28;20036;-76
2023/06/20 07:42:05;;;;;;;5.03;2.75;;;;;;;;;;5061290;28;20024;-76
2023/06/20 07:44:33;;;;;;;4.18;2.45;;;;;;;;;;5065434;28;20440;-76
2023/06/20 07:46:59;;;;;;;6.05;2.17;;;;;;;;;;5067888;28;20052;-77
2023/06/20 07:49:24;;;;;;;2.50;2.28;;;;;;;;;;5083627;22;20075;-82
2023/06/20 07:51:49;;;;;;;6.15;2.30;;;;;;;;;;5055469;28;20039;-80
2023/06/20 07:54:15;;;;;;;3.85;2.50;;;;;;;;;;5054089;28;20512;-81
2023/06/20 07:56:41;;;;;;;7.80;2.30;;;;;;;;;;5055438;28;20084;-80
2023/06/20 07:59:06;;;;;;;7.28;2.42;;;;;;;;;;5054431;28;20588;-79
2023/06/20 08:01:31;;;;;;;3.95;2.50;;;;;;;;;;5054839;28;20491;-80
2023/06/20 08:03:57;;;;;;;2.72;2.50;;;;;;;;;;5054661;28;20033;-79
2023/06/20 08:06:22;;;;;;;5.25;2.40;;;;;;;;;;5054979;28;20044;-80
2023/06/20 08:08:47;;;;;;;5.68;2.53;;;;;;;;;;5058148;28;20121;-80
2023/06/20 08:11:13;;;;;;;4.03;2.25;;;;;;;;;;5059077;28;20033;-80
2023/06/20 08:13:38;;;;;;;3.63;2.40;;;;;;;;;;5058696;28;20064;-79
2023/06/20 08:16:04;;;;;;;4.15;1.95;;;;;;;;;;5057590;28;20038;-78
2023/06/20 08:18:29;;;;;;;2.97;2.10;;;;;;;;;;5059647;28;20116;-80
2023/06/20 08:20:54;;;;;;;1.75;1.65;;;;;;;;;;5058141;28;20112;-80
2023/06/20 08:23:27;;;;;;;2.83;1.77;;;;;;;;;;5058249;28;20041;-79
2023/06/20 08:25:56;;;;;;;2.00;1.80;;;;;;;;;;5057728;28;20105;-79
2023/06/20 08:28:22;;;;;;;4.30;1.90;;;;;;;;;;5059459;28;20033;-80
2023/06/20 08:30:48;;;;;;;2.15;1.63;;;;;;;;;;5059283;28;20515;-80
2023/06/20 08:33:13;;;;;;;4.25;1.70;;;;;;;;;;5059311;28;20028;-80
2023/06/20 08:35:38;;;;;;;3.63;2.13;;;;;;;;;;5058804;28;20516;-80
2023/06/20 08:38:04;;;;;;;7.10;2.20;;;;;;;;;;5059295;28;20039;-80
2023/06/20 08:40:30;;;;;;;3.60;2.45;;;;;;;;;;5058491;28;20041;-79
2023/06/20 08:42:56;;;;;;;3.78;2.15;;;;;;;;;;5059753;28;20061;-80
2023/06/20 08:45:21;;;;;;;4.10;2.20;;;;;;;;;;5059674;28;20382;-81
2023/06/20 08:47:46;;;;;;;2.40;2.20;;;;;;;;;;5060010;28;20029;-82
2023/06/20 08:50:12;;;;;;;2.75;2.42;;;;;;;;;;5059649;28;20052;-81
2023/06/20 08:52:46;;;;;;;2.72;2.05;;;;;;;;;;5059984;28;20033;-82
2023/06/20 08:55:14;;;;;;;4.85;2.40;;;;;;;;;;5059730;28;20037;-81
2023/06/20 08:57:39;;;;;;;2.55;2.30;;;;;;;;;;5059650;28;20033;-81
2023/06/20 09:00:06;;;;;;;3.67;2.53;;;;;;;;;;5058579;28;20033;-81
2023/06/20 09:02:31;;;;;;;3.17;2.17;;;;;;;;;;5060339;28;20021;-79
2023/06/20 09:05:02;;;;;;;2.58;2.38;;;;;;;;;;5058786;28;20039;-80
2023/06/20 09:07:37;;;;;;;4.97;2.53;;;;;;;;;;5064422;28;20036;-77
2023/06/20 09:10:07;;;;;;;4.43;2.97;;;;;;;;;;5062748;28;20033;-78
2023/06/20 09:12:53;;;;;;;3.40;2.90;;;;;;;;;;5064462;28;20025;-77
2023/06/20 09:15:20;;;;;;;2.70;2.50;;;;;;;;;;5064742;28;20025;-79
2023/06/20 09:17:52;;;;;;;3.70;2.50;;;;;;;;;;5063590;28;20100;-77
2023/06/20 09:20:18;;;;;;;3.25;2.67;;;;;;;;;;5063977;28;20060;-77
2023/06/20 09:22:43;;;;;;;2.42;2.22;;;;;;;;;;5063597;28;20037;-78
2023/06/20 09:25:10;;;;;;;4.43;2.50;;;;;;;;;;5063128;28;20045;-76
2023/06/20 09:27:37;;;;;;;4.30;2.53;;;;;;;;;;5063482;28;20029;-79
2023/06/20 09:30:04;;;;;;;3.15;1.92;;;;;;;;;;5061115;28;20138;-79
2023/06/20 09:32:37;;;;;;;2.95;1.70;;;;;;;;;;5058300;28;20306;-78
2023/06/20 09:35:06;;;;;;;2.65;1.92;;;;;;;;;;5057831;28;20045;-81
2023/06/20 09:37:37;;;;;;;2.90;1.70;;;;;;;;;;5057081;28;20406;-80
2023/06/20 09:40:10;;;;;;;2.30;2.10;;;;;;;;;;5056618;28;20033;-80
2023/06/20 09:42:40;;;;;;;3.25;2.13;;;;;;;;;;5057459;28;20040;-80
2023/06/20 09:45:10;;;;;;;2.75;2.10;;;;;;;;;;5057064;28;20024;-81
2023/06/20 09:47:37;;;;;;;2.90;2.10;;;;;;;;;;5057786;28;20025;-81
2023/06/20 09:50:07;;;;;;;5.32;2.50;;;;;;;;;;5056916;28;20499;-81
2023/06/20 09:52:39;;;;;;;2.70;2.50;;;;;;;;;;5058143;28;20040;-80
2023/06/20 09:55:10;;;;;;;6.30;2.38;;;;;;;;;;5056407;28;20037;-79
2023/06/20 09:57:41;;;;;;;8.10;2.28;;;;;;;;;;5056223;28;20037;-81
2023/06/20 10:00:15;;;;;;;2.45;2.20;;;;;;;;;;5056215;28;20051;-81
2023/06/20 10:02:48;;;;;;;2.40;2.00;;;;;;;;;;5057476;28;20120;-80
2023/06/20 10:05:18;;;;;;;8.98;2.28;;;;;;;;;;5057368;28;20037;-80
2023/06/20 10:07:46;;;;;;;3.83;2.35;;;;;;;;;;5055923;28;20032;-81
2023/06/20 10:10:13;;;;;;;3.08;2.40;;;;;;;;;;5057702;28;20029;-80
2023/06/20 10:12:40;;;;;;;2.30;1.90;;;;;;;;;;5057738;28;20091;-80
2023/06/20 10:15:09;;;;;;;2.13;1.92;;;;;;;;;;5056874;28;20033;-81
2023/06/20 10:17:39;;;;;;;4.30;2.28;;;;;;;;;;5056224;28;20036;-80
2023/06/20 10:20:07;;;;;;;4.20;2.65;;;;;;;;;;5057203;28;20657;-82
2023/06/20 10:22:36;;;;;;;3.67;2.08;;;;;;;;;;5055582;28;20033;-81
2023/06/20 10:25:11;;;;;;;7.05;2.10;;;;;;;;;;5055999;28;20044;-81
2023/06/20 10:27:53;;;;;;;2.88;2.40;;;;;;;;;;5057319;28;20021;-81
2023/06/20 10:30:53;;;;;;;3.47;2.25;;;;;;;;;;5056016;28;20315;-81
2023/06/20 10:33:32;;;;;;;2.42;2.13;;;;;;;;;;5055757;28;20020;-80
2023/06/20 10:36:05;;;;;;;3.33;2.25;;;;;;;;;;5056000;28;20502;-81
2023/06/20 10:38:33;;;;;;;2.85;2.40;;;;;;;;;;5057114;28;20114;-80
2023/06/20 10:41:14;;;;;;;4.28;2.30;;;;;;;;;;5055799;28;20071;-81
2023/06/20 10:43:59;;;;;;;3.95;2.55;;;;;;;;;;5056416;28;20056;-81
2023/06/20 10:46:36;;;;;;;5.07;2.40;;;;;;;;;;5056854;28;20048;-81
2023/06/20 10:49:06;;;;;;;3.25;2.40;;;;;;;;;;5056110;28;20040;-82
2023/06/20 10:51:52;;;;;;;2.65;2.45;;;;;;;;;;5056743;28;20029;-79
2023/06/20 10:54:19;;;;;;;6.85;2.90;;;;;;;;;;5056844;28;20104;-81
2023/06/20 10:56:46;;;;;;;4.07;2.88;;;;;;;;;;5056009;28;20020;-81
2023/06/20 10:59:16;;;;;;;5.05;2.60;;;;;;;;;;5055621;28;20032;-81
2023/06/20 11:01:41;;;;;;;3.13;2.72;;;;;;;;;;5055512;28;20031;-81
2023/06/20 11:04:08;;;;;;;5.40;3.25;;;;;;;;;;5056724;28;20506;-80
2023/06/20 11:06:33;;;;;;;3.65;2.70;;;;;;;;;;5056601;28;20033;-79
2023/06/20 11:08:59;;;;;;;7.55;3.17;;;;;;;;;;5057049;28;20451;-79
2023/06/20 11:11:31;;;;;;;12.75;2.92;;;;;;;;;;5057032;28;20114;-79
2023/06/20 11:14:28;;;;;;;3.72;2.72;;;;;;;;;;5055568;28;20098;-77
2023/06/20 11:16:54;;;;;;;5.25;2.72;;;;;;;;;;5054736;28;20044;-79
2023/06/20 11:19:20;;;;;;;6.20;2.97;;;;;;;;;;5055086;28;20037;-81
2023/06/20 11:21:46;;;;;;;5.93;2.50;;;;;;;;;;5055628;28;20063;-80
2023/06/20 11:24:11;;;;;;;5.20;2.67;;;;;;;;;;5054898;28;20025;-80
2023/06/20 11:26:36;;;;;;;5.50;2.88;;;;;;;;;;5055573;28;20483;-81
2023/06/20 11:29:03;;;;;;;4.40;2.60;;;;;;;;;;5056460;28;20040;-81
2023/06/20 11:31:29;;;;;;;7.90;2.83;;;;;;;;;;5055378;28;20033;-81
2023/06/20 11:34:21;;;;;;;8.52;2.47;;;;;;;;;;5057287;28;20559;-80
2023/06/20 11:36:49;;;;;;;3.85;2.67;;;;;;;;;;5050919;28;20033;-81
2023/06/20 11:39:14;;;;;;;4.65;2.97;;;;;;;;;;5055076;28;20025;-81
2023/06/20 11:41:39;;;;;;;5.35;2.55;;;;;;;;;;5055915;28;20036;-80
2023/06/20 11:44:21;;;;;;;9.23;2.92;;;;;;;;;;5057563;28;20049;-81
2023/06/20 11:46:46;;;;;;;4.30;2.83;;;;;;;;;;5060128;28;20045;-81
2023/06/20 11:49:28;;;;;;;5.25;2.92;;;;;;;;;;5060345;28;20068;-80
2023/06/20 11:51:54;;;;;;;10.50;2.53;;;;;;;;;;5058536;28;20112;-81
2023/06/20 11:54:19;;;;;;;8.10;2.92;;;;;;;;;;5058797;28;20056;-80
2023/06/20 11:56:50;;;;;;;13.25;2.80;;;;;;;;;;5061171;28;20021;-80
2023/06/20 11:59:22;;;;;;;7.72;2.83;;;;;;;;;;5059914;28;20045;-81
2023/06/20 12:01:47;;;;;;;4.00;2.35;;;;;;;;;;5060100;28;20037;-81
2023/06/20 12:04:19;;;;;;;7.07;3.20;;;;;;;;;;5059822;28;20033;-81
2023/06/20 12:06:44;;;;;;;4.03;2.40;;;;;;;;;;5058927;28;20025;-81
2023/06/20 12:09:12;;;;;;;7.75;3.13;;;;;;;;;;5059063;28;20085;-81
2023/06/20 12:11:52;;;;;;;10.88;3.00;;;;;;;;;;5061446;28;20029;-81
2023/06/20 12:14:18;;;;;;;7.30;2.92;;;;;;;;;;5058093;28;20069;-82
2023/06/20 12:16:43;;;;;;;9.02;3.60;;;;;;;;;;5060013;28;20041;-81
2023/06/20 12:19:09;;;;;;;16.45;3.20;;;;;;;;;;5058595;28;20096;-81
2023/06/20 12:21:38;;;;;;;5.18;2.78;;;;;;;;;;5058720;28;20040;-81
2023/06/20 12:24:07;;;;;;;9.18;2.95;;;;;;;;;;5058846;28;20059;-80
2023/06/20 12:26:32;;;;;;;6.05;2.63;;;;;;;;;;5059469;28;20033;-80
2023/06/20 12:28:57;;;;;;;4.65;2.97;;;;;;;;;;5057924;28;20040;-79
2023/06/20 12:31:24;;;;;;;11.23;3.13;;;;;;;;;;5057774;28;20068;-79
2023/06/20 12:33:49;;;;;;;10.07;3.22;;;;;;;;;;5057882;28;20108;-76
2023/06/20 12:36:15;;;;;;;6.57;3.42;;;;;;;;;;5057596;28;20091;-79
2023/06/20 12:38:41;;;;;;;4.80;2.60;;;;;;;;;;5059621;28;20032;-78
2023/06/20 12:41:06;;;;;;;4.05;2.97;;;;;;;;;;5057358;28;20033;-80
2023/06/20 12:43:32;;;;;;;9.95;2.75;;;;;;;;;;5057658;28;20061;-79
2023/06/20 12:46:00;;;;;;;10.27;2.85;;;;;;;;;;5058782;28;20082;-79
2023/06/20 12:48:26;;;;;;;5.40;2.88;;;;;;;;;;5058965;28;20053;-80
2023/06/20 12:50:52;;;;;;;4.75;3.08;;;;;;;;;;5058048;28;20110;-79
2023/06/20 12:53:17;;;;;;;8.07;3.20;;;;;;;;;;5057422;28;20079;-80
2023/06/20 12:55:42;;;;;;;7.10;3.33;;;;;;;;;;5055456;28;20411;-79
2023/06/20 12:58:13;;;;;;;14.43;2.97;;;;;;;;;;5057444;28;20491;-78
2023/06/20 13:00:41;;;;;;;6.53;3.03;;;;;;;;;;5057105;28;20064;-79
2023/06/20 13:03:08;;;;;;;5.60;3.00;;;;;;;;;;5057527;28;20040;-79
2023/06/20 13:05:35;;;;;;;8.05;3.13;;;;;;;;;;5058701;28;20036;-80
2023/06/20 13:08:02;;;;;;;7.13;2.83;;;;;;;;;;5057136;28;20041;-82
2023/06/20 13:10:28;;;;;;;7.45;2.95;;;;;;;;;;5057057;28;20059;-79
2023/06/20 13:12:57;;;;;;;10.57;3.13;;;;;;;;;;5057040;28;20033;-79
2023/06/20 13:15:24;;;;;;;6.28;2.85;;;;;;;;;;5058603;28;20032;-79
2023/06/20 13:17:54;;;;;;;13.35;3.53;;;;;;;;;;5058999;28;20052;-79
2023/06/20 13:20:20;;;;;;;8.68;2.97;;;;;;;;;;5057188;28;20033;-81
2023/06/20 13:22:45;;;;;;;5.10;3.22;;;;;;;;;;5056440;28;20503;-80
2023/06/20 13:25:10;;;;;;;7.82;3.10;;;;;;;;;;5056421;28;20048;-80
2023/06/20 13:27:35;;;;;;;5.90;3.07;;;;;;;;;;5056475;28;20025;-78
2023/06/20 13:30:01;;;;;;;5.85;3.33;;;;;;;;;;5058522;28;20301;-79
2023/06/20 13:32:27;;;;;;;7.40;3.10;;;;;;;;;;5057963;28;20033;-79
2023/06/20 13:34:53;;;;;;;5.38;3.30;;;;;;;;;;5057098;28;20100;-81
2023/06/20 13:37:18;;;;;;;8.30;3.15;;;;;;;;;;5058229;28;20056;-79
2023/06/20 13:39:44;;;;;;;5.43;4.00;;;;;;;;;;5057776;28;20031;-79
2023/06/20 13:42:09;;;;;;;5.00;3.33;;;;;;;;;;5055834;28;20040;-80
2023/06/20 13:44:35;;;;;;;8.02;3.03;;;;;;;;;;5056372;28;20021;-78
2023/06/20 13:47:00;;;;;;;8.43;3.37;;;;;;;;;;5056926;28;20033;-82
2023/06/20 13:49:28;;;;;;;10.43;3.45;;;;;;;;;;5055742;28;20272;-79
2023/06/20 13:51:54;;;;;;;4.50;3.40;;;;;;;;;;5054712;28;20036;-80
2023/06/20 13:54:20;;;;;;;6.57;3.00;;;;;;;;;;5057192;28;20211;-78
2023/06/20 13:56:46;;;;;;;4.90;3.20;;;;;;;;;;5056324;28;20403;-79
2023/06/20 13:59:12;;;;;;;9.63;3.13;;;;;;;;;;5055468;28;20036;-79
2023/06/20 14:01:39;;;;;;;6.68;3.45;;;;;;;;;;5055609;28;20089;-80
2023/06/20 14:04:04;;;;;;;7.50;3.75;;;;;;;;;;5059163;28;20033;-76
2023/06/20 14:06:30;;;;;;;5.97;3.22;;;;;;;;;;5060315;28;20044;-76
2023/06/20 14:08:56;;;;;;;10.10;3.45;;;;;;;;;;5058870;28;20102;-77
2023/06/20 14:11:21;;;;;;;11.20;3.28;;;;;;;;;;5060717;28;20032;-79
2023/06/20 14:13:46;;;;;;;10.07;3.85;;;;;;;;;;5060733;28;20041;-80
2023/06/20 14:16:12;;;;;;;11.00;3.63;;;;;;;;;;5059294;28;20049;-78
2023/06/20 14:18:37;;;;;;;7.88;3.40;;;;;;;;;;5061563;28;20051;-78
2023/06/20 14:21:02;;;;;;;6.90;3.05;;;;;;;;;;5063776;28;20031;-79
2023/06/20 14:23:27;;;;;;;8.38;3.17;;;;;;;;;;5062766;28;20041;-77
2023/06/20 14:25:53;;;;;;;10.80;3.50;;;;;;;;;;5061798;28;20067;-79
2023/06/20 14:28:21;;;;;;;7.43;3.30;;;;;;;;;;5055946;28;20041;-80
2023/06/20 14:30:47;;;;;;;13.18;4.13;;;;;;;;;;5055082;28;20029;-78
2023/06/20 14:33:13;;;;;;;7.35;3.53;;;;;;;;;;5057344;28;20070;-79
2023/06/20 14:35:38;;;;;;;5.93;3.25;;;;;;;;;;5057212;28;20025;-80
2023/06/20 14:38:03;;;;;;;5.22;3.25;;;;;;;;;;5056921;28;20526;-79
2023/06/20 14:40:29;;;;;;;6.05;3.38;;;;;;;;;;5054990;28;20542;-80
2023/06/20 14:42:55;;;;;;;7.38;3.35;;;;;;;;;;5055069;28;20045;-80
2023/06/20 14:45:20;;;;;;;8.23;3.30;;;;;;;;;;5055629;28;20033;-78
2023/06/20 14:47:46;;;;;;;6.57;3.40;;;;;;;;;;5056563;28;20033;-79